createdAt,value
2018-01-20T00:01:33.561Z,13.65
2018-01-20T00:04:02.269Z,12.98
2018-01-20T00:06:30.941Z,11.30
2018-01-20T00:08:59.436Z,12.70
2018-01-20T00:11:39.418Z,11.02
2018-01-20T00:14:08.097Z,15.02
2018-01-20T00:16:37.296Z,13.27
2018-01-20T00:19:06.005Z,12.07
2018-01-20T00:21:35.444Z,12.23
2018-01-20T00:24:04.108Z,12.35
2018-01-20T00:26:38.005Z,12.98
2018-01-20T00:29:07.454Z,12.80
2018-01-20T00:31:36.116Z,11.40
2018-01-20T00:34:05.568Z,9.82
2018-01-20T00:36:34.537Z,11.68
2018-01-20T00:39:02.873Z,12.43
2018-01-20T00:41:32.353Z,9.80
2018-01-20T00:44:01.012Z,9.52
2018-01-20T00:46:29.670Z,9.88
2018-01-20T00:48:58.362Z,11.50
2018-01-20T00:51:27.027Z,10.40
2018-01-20T00:53:56.447Z,10.32
2018-01-20T00:56:26.096Z,9.50
2018-01-20T00:58:55.333Z,12.85
2018-01-20T01:01:24.001Z,11.40
2018-01-20T01:03:52.696Z,12.07
2018-01-20T01:06:21.365Z,11.70
2018-01-20T01:08:50.038Z,12.37
2018-01-20T01:11:18.905Z,9.27
2018-01-20T01:13:47.572Z,11.48
2018-01-20T01:16:17.005Z,10.20
2018-01-20T01:18:45.705Z,10.13
2018-01-20T01:21:14.041Z,10.77
2018-01-20T01:23:43.470Z,11.75
2018-01-20T01:26:12.148Z,9.52
2018-01-20T01:28:41.009Z,10.27
2018-01-20T01:31:09.668Z,9.63
2018-01-20T01:33:38.372Z,10.98
2018-01-20T01:36:07.056Z,16.70
2018-01-20T01:38:35.720Z,11.32
2018-01-20T01:41:04.407Z,12.23
2018-01-20T01:43:33.064Z,10.38
2018-01-20T01:46:01.749Z,13.10
2018-01-20T01:48:30.473Z,15.75
2018-01-20T01:50:59.144Z,11.25
2018-01-20T01:53:27.805Z,8.90
2018-01-20T01:55:56.497Z,10.52
2018-01-20T01:58:25.161Z,12.02
2018-01-20T02:00:53.816Z,11.10
2018-01-20T02:03:22.509Z,10.90
2018-01-20T02:05:51.166Z,8.07
2018-01-20T02:08:19.817Z,9.93
2018-01-20T02:10:49.264Z,10.10
2018-01-20T02:13:17.921Z,9.38
2018-01-20T02:15:46.581Z,9.60
2018-01-20T02:18:16.033Z,9.15
2018-01-20T02:20:44.707Z,10.15
2018-01-20T02:23:15.021Z,10.90
2018-01-20T02:25:43.704Z,10.52
2018-01-20T02:28:12.385Z,11.00
2018-01-20T02:30:41.490Z,9.38
2018-01-20T02:33:10.155Z,9.05
2018-01-20T02:35:39.588Z,8.85
2018-01-20T02:38:08.252Z,8.57
2018-01-20T02:40:37.702Z,9.80
2018-01-20T02:43:06.382Z,9.65
2018-01-20T02:45:35.058Z,10.50
2018-01-20T02:48:03.739Z,12.57
2018-01-20T02:50:32.401Z,8.45
2018-01-20T02:53:01.835Z,9.02
2018-01-20T02:55:30.545Z,9.30
2018-01-20T02:58:00.148Z,6.40
2018-01-20T03:00:28.817Z,9.70
2018-01-20T03:02:57.487Z,6.10
2018-01-20T03:05:26.924Z,10.25
2018-01-20T03:07:55.593Z,7.45
2018-01-20T03:10:24.266Z,6.87
2018-01-20T03:12:52.937Z,8.10
2018-01-20T03:15:22.369Z,8.13
2018-01-20T03:17:51.037Z,7.28
2018-01-20T03:20:20.478Z,5.78
2018-01-20T03:22:49.161Z,10.90
2018-01-20T03:25:17.846Z,7.57
2018-01-20T03:27:46.519Z,9.00
2018-01-20T03:30:15.185Z,8.02
2018-01-20T03:32:44.616Z,6.28
2018-01-20T03:35:13.281Z,9.38
2018-01-20T03:37:42.722Z,9.05
2018-01-20T03:40:11.407Z,7.25
2018-01-20T03:42:40.081Z,7.32
2018-01-20T03:45:08.745Z,6.20
2018-01-20T03:47:38.195Z,9.40
2018-01-20T03:50:06.872Z,5.60
2018-01-20T03:52:35.744Z,7.10
2018-01-20T03:55:03.744Z,5.78
2018-01-20T03:57:32.432Z,9.20
2018-01-20T04:00:01.106Z,8.95
2018-01-20T04:02:29.772Z,6.05
2018-01-20T04:04:58.443Z,8.63
2018-01-20T04:07:27.885Z,7.50
2018-01-20T04:09:56.561Z,6.80
2018-01-20T04:12:24.898Z,8.75
2018-01-20T04:14:53.373Z,5.65
2018-01-20T04:17:22.050Z,5.82
2018-01-20T04:19:50.717Z,6.05
2018-01-20T04:22:19.390Z,6.50
2018-01-20T04:24:48.061Z,7.82
2018-01-20T04:27:16.733Z,6.60
2018-01-20T04:29:46.168Z,9.30
2018-01-20T04:32:14.834Z,5.10
2018-01-20T04:34:43.701Z,8.23
2018-01-20T04:37:13.144Z,8.40
2018-01-20T04:39:41.810Z,6.43
2018-01-20T04:42:10.476Z,7.45
2018-01-20T04:44:39.913Z,5.05
2018-01-20T04:47:08.579Z,6.65
2018-01-20T04:49:38.022Z,7.10
2018-01-20T04:52:06.687Z,5.78
2018-01-20T04:54:35.357Z,6.05
2018-01-20T04:57:04.801Z,6.30
2018-01-20T04:59:33.460Z,5.95
2018-01-20T05:02:01.805Z,11.15
2018-01-20T05:04:30.472Z,5.72
2018-01-20T05:06:59.138Z,6.28
2018-01-20T05:09:27.821Z,10.52
2018-01-20T05:11:56.487Z,6.10
2018-01-20T05:14:25.156Z,7.15
2018-01-20T05:16:54.593Z,7.10
2018-01-20T05:19:23.266Z,7.07
2018-01-20T05:21:51.957Z,12.15
2018-01-20T05:24:20.657Z,15.82
2018-01-20T05:26:49.330Z,9.48
2018-01-20T05:29:18.003Z,5.82
2018-01-20T05:31:47.437Z,8.52
2018-01-20T05:34:16.109Z,7.80
2018-01-20T05:36:44.777Z,6.32
2018-01-20T05:39:14.214Z,8.20
2018-01-20T05:41:42.894Z,8.30
2018-01-20T05:44:11.569Z,9.85
2018-01-20T05:46:40.236Z,8.20
2018-01-20T05:49:09.669Z,6.00
2018-01-20T05:51:38.344Z,10.48
2018-01-20T05:54:07.008Z,6.97
2018-01-20T05:56:36.444Z,10.02
2018-01-20T05:59:04.798Z,7.03
2018-01-20T06:01:34.229Z,7.15
2018-01-20T06:04:02.570Z,7.65
2018-01-20T06:06:32.013Z,11.63
2018-01-20T06:09:00.681Z,8.95
2018-01-20T06:11:29.355Z,10.95
2018-01-20T06:13:58.810Z,8.23
2018-01-20T06:16:27.496Z,12.70
2018-01-20T06:18:55.991Z,11.90
2018-01-20T06:21:24.692Z,15.68
2018-01-20T06:23:53.374Z,9.85
2018-01-20T06:26:22.045Z,9.52
2018-01-20T06:28:50.716Z,7.68
2018-01-20T06:31:19.380Z,7.20
2018-01-20T06:33:48.049Z,8.73
2018-01-20T06:36:17.497Z,7.30
2018-01-20T06:38:46.174Z,8.43
2018-01-20T06:41:14.840Z,9.52
2018-01-20T06:43:43.521Z,7.72
2018-01-20T06:46:13.019Z,7.28
2018-01-20T06:48:42.448Z,9.68
2018-01-20T06:51:11.122Z,9.48
2018-01-20T06:53:40.561Z,10.48
2018-01-20T06:56:08.902Z,9.90
2018-01-20T06:58:38.144Z,6.15
2018-01-20T07:01:06.809Z,7.50
2018-01-20T07:03:35.477Z,7.20
2018-01-20T07:06:04.889Z,8.07
2018-01-20T07:08:33.572Z,14.95
2018-01-20T07:11:02.314Z,18.65
2018-01-20T07:13:31.895Z,8.05
2018-01-20T07:16:00.939Z,7.85
2018-01-20T07:18:29.424Z,7.87
2018-01-20T07:20:58.874Z,17.65
2018-01-20T07:23:27.553Z,10.07
2018-01-20T07:25:56.225Z,9.73
2018-01-20T07:28:24.901Z,12.50
2018-01-20T07:30:54.396Z,15.05
2018-01-20T07:33:23.061Z,7.87
2018-01-20T07:35:51.733Z,8.75
2018-01-20T07:38:20.404Z,9.23
2018-01-20T07:40:49.077Z,11.98
2018-01-20T07:43:17.760Z,19.10
2018-01-20T07:45:46.431Z,31.62
2018-01-20T07:48:15.112Z,14.75
2018-01-20T07:50:44.554Z,12.55
2018-01-20T07:53:13.233Z,11.05
2018-01-20T07:55:41.909Z,11.52
2018-01-20T07:58:10.577Z,9.25
2018-01-20T08:00:40.026Z,9.30
2018-01-20T08:03:08.702Z,7.53
2018-01-20T08:05:37.390Z,16.12
2018-01-20T08:08:06.093Z,11.57
2018-01-20T08:10:34.781Z,11.65
2018-01-20T08:13:03.265Z,8.95
2018-01-20T08:15:31.939Z,8.55
2018-01-20T08:18:00.293Z,11.75
2018-01-20T08:20:28.956Z,9.15
2018-01-20T08:22:58.409Z,12.00
2018-01-20T08:25:27.094Z,11.15
2018-01-20T08:27:55.757Z,9.48
2018-01-20T08:30:24.417Z,9.35
2018-01-20T08:32:53.091Z,9.38
2018-01-20T08:35:21.780Z,10.07
2018-01-20T08:37:50.462Z,9.85
2018-01-20T08:43:30.410Z,9.75
2018-01-20T08:46:01.809Z,5.78
2018-01-20T08:48:38.025Z,6.85
2018-01-20T08:51:09.263Z,7.20
2018-01-20T08:53:38.021Z,5.50
2018-01-20T08:56:07.575Z,8.73
2018-01-20T08:58:36.245Z,6.75
2018-01-20T09:01:04.909Z,5.12
2018-01-20T09:03:33.569Z,5.65
2018-01-20T09:06:03.001Z,7.32
2018-01-20T09:08:31.674Z,8.77
2018-01-20T09:11:02.005Z,8.02
2018-01-20T09:13:30.685Z,7.18
2018-01-20T09:16:00.122Z,6.40
2018-01-20T09:18:28.802Z,5.78
2018-01-20T09:20:57.460Z,5.12
2018-01-20T09:23:26.899Z,7.10
2018-01-20T09:25:55.576Z,8.15
2018-01-20T09:28:24.253Z,6.65
2018-01-20T09:30:52.922Z,5.80
2018-01-20T09:33:22.357Z,6.55
2018-01-20T09:35:51.043Z,7.60
2018-01-20T09:38:20.325Z,9.60
2018-01-20T09:40:49.011Z,8.00
2018-01-20T09:43:17.688Z,6.45
2018-01-20T09:45:47.165Z,9.60
2018-01-20T09:48:21.346Z,5.12
2018-01-20T09:50:50.050Z,6.43
2018-01-20T09:53:19.431Z,7.40
2018-01-20T09:55:48.114Z,4.30
2018-01-20T09:58:16.783Z,7.93
2018-01-20T10:00:46.221Z,6.20
2018-01-20T10:03:14.700Z,6.72
2018-01-20T10:05:43.376Z,6.07
2018-01-20T10:08:12.111Z,4.65
2018-01-20T10:10:40.933Z,5.30
2018-01-20T10:13:09.617Z,4.22
2018-01-20T10:15:39.052Z,5.03
2018-01-20T10:18:07.817Z,6.25
2018-01-20T10:20:36.457Z,7.75
2018-01-20T10:23:05.128Z,5.30
2018-01-20T10:25:33.780Z,5.10
2018-01-20T10:28:02.483Z,4.93
2018-01-20T10:30:30.503Z,6.93
2018-01-20T10:32:59.182Z,5.28
2018-01-20T10:35:27.889Z,5.85
2018-01-20T10:37:57.365Z,10.77
2018-01-20T10:40:26.047Z,6.32
2018-01-20T10:42:54.734Z,4.75
2018-01-20T10:45:23.409Z,4.37
2018-01-20T10:47:52.084Z,5.35
2018-01-20T10:50:20.844Z,5.03
2018-01-20T10:52:50.283Z,5.80
2018-01-20T10:55:18.966Z,6.65
2018-01-20T10:57:47.681Z,5.72
2018-01-20T11:00:16.369Z,5.03
2018-01-20T11:02:45.049Z,4.03
2018-01-20T11:05:31.035Z,6.82
2018-01-20T11:08:10.038Z,3.60
2018-01-20T11:13:33.397Z,4.35
2018-01-20T11:16:04.545Z,7.57
2018-01-20T11:36:00.276Z,4.07
2018-01-20T11:38:50.107Z,6.10
2018-01-20T11:55:48.693Z,3.47
2018-01-20T11:58:17.371Z,4.40
2018-01-20T12:00:46.037Z,3.80
2018-01-20T12:03:14.716Z,4.93
2018-01-20T12:05:43.401Z,4.18
2018-01-20T12:08:12.077Z,4.30
2018-01-20T12:10:41.557Z,5.60
2018-01-20T12:13:10.241Z,4.05
2018-01-20T12:15:38.910Z,6.35
2018-01-20T12:18:07.589Z,3.42
2018-01-20T12:20:40.148Z,3.37
2018-01-20T12:23:08.641Z,3.92
2018-01-20T12:25:37.127Z,8.00
2018-01-20T12:28:05.651Z,3.40
2018-01-20T12:30:34.293Z,4.43
2018-01-20T12:33:02.780Z,3.33
2018-01-20T12:35:31.264Z,4.80
2018-01-20T12:38:00.689Z,3.08
2018-01-20T12:40:29.180Z,4.45
2018-01-20T12:42:57.670Z,5.15
2018-01-20T12:45:26.161Z,2.92
2018-01-20T12:47:55.417Z,3.10
2018-01-20T12:50:23.905Z,2.72
2018-01-20T12:55:38.924Z,2.90
2018-01-20T12:58:08.517Z,4.25
2018-01-20T13:00:37.196Z,3.65
2018-01-20T13:03:05.684Z,5.85
2018-01-20T13:05:35.861Z,4.30
2018-01-20T13:08:04.539Z,5.03
2018-01-20T13:10:33.971Z,5.07
2018-01-20T13:13:09.183Z,5.55
2018-01-20T13:15:49.536Z,5.57
2018-01-20T13:18:19.545Z,3.70
2018-01-20T13:20:48.206Z,6.37
2018-01-20T13:23:16.553Z,3.65
2018-01-20T13:25:45.252Z,3.20
2018-01-20T13:28:14.092Z,3.03
2018-01-20T13:30:43.513Z,5.85
2018-01-20T13:33:12.941Z,5.75
2018-01-20T13:35:41.619Z,4.62
2018-01-20T13:38:10.676Z,4.00
2018-01-20T13:40:40.140Z,4.25
2018-01-20T13:43:08.818Z,11.43
2018-01-20T13:45:37.493Z,4.20
2018-01-20T13:48:05.965Z,5.57
2018-01-20T13:50:34.638Z,4.37
2018-01-20T13:53:04.073Z,8.70
2018-01-20T13:55:32.737Z,7.32
2018-01-20T13:58:01.415Z,4.25
2018-01-20T14:00:30.840Z,4.93
2018-01-20T14:02:59.509Z,4.55
2018-01-20T14:05:28.950Z,7.87
2018-01-20T14:07:58.389Z,4.18
2018-01-20T14:10:27.065Z,5.85
2018-01-20T14:12:55.746Z,4.15
2018-01-20T14:15:24.429Z,5.25
2018-01-20T14:17:53.103Z,3.67
2018-01-20T14:20:21.780Z,4.35
2018-01-20T14:22:50.522Z,3.80
2018-01-20T14:25:19.962Z,3.30
2018-01-20T14:27:49.229Z,3.22
2018-01-20T14:30:18.486Z,3.15
2018-01-20T14:32:47.175Z,3.50
2018-01-20T14:35:15.864Z,4.37
2018-01-20T14:37:44.547Z,4.97
2018-01-20T14:40:13.221Z,5.15
2018-01-20T14:42:41.919Z,4.45
2018-01-20T14:45:10.599Z,4.70
2018-01-20T14:47:39.389Z,6.57
2018-01-20T14:50:08.092Z,4.20
2018-01-20T14:52:36.756Z,8.05
2018-01-20T14:55:05.141Z,3.85
2018-01-20T14:57:34.750Z,3.75
2018-01-20T15:00:03.427Z,5.05
2018-01-20T15:02:31.911Z,5.40
2018-01-20T15:05:00.601Z,4.62
2018-01-20T15:07:29.267Z,6.15
2018-01-20T15:09:57.939Z,5.03
2018-01-20T15:12:27.379Z,4.50
2018-01-20T15:14:56.046Z,6.47
2018-01-20T15:17:24.725Z,10.35
2018-01-20T15:19:54.226Z,4.82
2018-01-20T15:22:23.004Z,4.90
2018-01-20T15:24:52.481Z,4.18
2018-01-20T15:27:22.670Z,4.47
2018-01-20T15:29:54.195Z,4.70
2018-01-20T15:32:23.634Z,6.12
2018-01-20T15:34:52.321Z,4.40
2018-01-20T15:37:20.986Z,6.68
2018-01-20T15:39:49.662Z,4.65
2018-01-20T15:42:19.759Z,4.55
2018-01-20T15:44:48.420Z,8.25
2018-01-20T15:47:17.997Z,8.13
2018-01-20T15:49:52.283Z,6.65
2018-01-20T15:52:21.721Z,5.95
2018-01-20T15:54:50.397Z,6.05
2018-01-20T15:57:43.467Z,13.62
2018-01-20T16:00:11.959Z,9.80
2018-01-20T16:02:42.058Z,9.25
2018-01-20T16:05:10.722Z,7.32
2018-01-20T16:07:40.663Z,6.28
2018-01-20T16:10:09.154Z,6.65
2018-01-20T16:18:19.919Z,11.60
2018-01-20T16:20:55.217Z,10.70
2018-01-20T16:26:14.840Z,10.60
2018-01-20T16:31:47.168Z,9.15
2018-01-20T16:34:48.165Z,15.10
2018-01-20T17:21:21.087Z,27.27
2018-01-20T17:23:49.926Z,39.65
2018-01-20T17:26:23.399Z,26.92
2018-01-20T17:28:52.093Z,32.95
2018-01-20T17:31:21.603Z,30.12
2018-01-20T17:33:49.977Z,24.70
2018-01-20T17:36:18.665Z,32.70
2018-01-20T17:38:47.349Z,31.00
2018-01-20T17:41:16.076Z,23.17
2018-01-20T17:43:44.825Z,26.15
2018-01-20T17:46:13.349Z,26.87
2018-01-20T17:48:42.046Z,22.27
2018-01-20T17:51:10.553Z,27.33
2018-01-20T17:53:39.062Z,23.55
2018-01-20T17:56:07.945Z,25.33
2018-01-20T17:58:37.521Z,24.83
2018-01-20T18:01:09.615Z,24.25
2018-01-20T18:03:39.065Z,24.52
2018-01-20T18:06:07.749Z,25.37
2018-01-20T18:08:36.432Z,22.70
2018-01-20T18:11:07.558Z,25.55
2018-01-20T18:13:37.291Z,24.30
2018-01-20T18:19:00.569Z,21.60
2018-01-20T18:21:31.701Z,18.40
2018-01-20T18:24:00.384Z,24.10
2018-01-20T18:26:30.537Z,20.83
2018-01-20T18:28:59.225Z,32.38
2018-01-20T18:31:27.918Z,21.73
2018-01-20T18:33:56.600Z,23.25
2018-01-20T18:36:25.281Z,26.05
2018-01-20T18:38:54.441Z,22.50
2018-01-20T18:41:23.129Z,24.15
2018-01-20T18:55:27.565Z,25.00
2018-01-20T18:57:56.268Z,18.52
2018-01-20T19:00:24.940Z,20.35
2018-01-20T19:02:53.621Z,22.25
2018-01-20T19:05:22.315Z,17.40
2018-01-20T19:17:18.855Z,18.08
2018-01-20T19:22:55.178Z,23.77
2018-01-20T19:50:44.285Z,27.80
2018-01-20T19:53:13.813Z,23.77
2018-01-20T19:56:01.041Z,22.95
2018-01-20T19:58:45.902Z,22.65
2018-01-20T20:01:23.910Z,20.23
2018-01-20T20:03:56.617Z,20.70
2018-01-20T20:06:29.040Z,24.42
2018-01-20T20:09:31.280Z,21.62
2018-01-20T20:51:08.378Z,24.45
2018-01-20T20:56:40.381Z,22.35
2018-01-20T20:59:09.114Z,18.62
2018-01-20T21:01:37.834Z,23.08
2018-01-20T21:04:06.551Z,23.25
2018-01-20T21:06:36.011Z,19.12
2018-01-20T21:09:04.052Z,22.40
2018-01-20T21:11:32.770Z,29.48
2018-01-20T21:20:14.081Z,26.35
2018-01-20T21:22:42.888Z,49.80
2018-01-20T21:25:11.591Z,57.25
2018-01-20T21:27:40.266Z,42.88
2018-01-20T21:30:25.850Z,35.03
2018-01-20T21:53:32.453Z,20.33
2018-01-20T22:05:11.189Z,25.70
2018-01-20T22:07:39.905Z,21.83
2018-01-20T22:10:08.621Z,23.42
2018-01-20T22:12:38.528Z,21.27
2018-01-20T22:15:07.914Z,20.08
2018-01-20T22:17:36.620Z,23.42
2018-01-20T22:20:05.317Z,22.85
2018-01-20T22:22:34.930Z,19.17
2018-01-20T22:25:03.359Z,23.27
2018-01-20T22:27:32.845Z,20.20
2018-01-20T22:30:02.100Z,25.40
2018-01-20T22:32:31.950Z,24.20
2018-01-20T22:35:01.431Z,24.77
2018-01-20T22:37:30.130Z,20.73
2018-01-20T22:39:59.617Z,23.70
2018-01-20T22:42:28.321Z,24.02
2018-01-20T22:44:57.049Z,21.30
2018-01-20T22:47:25.779Z,20.02
2018-01-20T22:49:54.485Z,21.65
2018-01-20T22:52:23.197Z,23.48
2018-01-20T22:54:52.906Z,22.08
2018-01-20T22:57:23.009Z,18.75
2018-01-20T22:59:52.605Z,20.05
2018-01-20T23:02:21.298Z,22.65
2018-01-20T23:04:49.980Z,18.98
2018-01-20T23:07:18.676Z,19.95
2018-01-20T23:09:47.047Z,19.20
2018-01-20T23:12:15.737Z,21.55
2018-01-20T23:14:44.431Z,21.30
2018-01-20T23:17:13.128Z,20.25
2018-01-20T23:19:42.581Z,23.85
2018-01-20T23:22:11.277Z,20.88
2018-01-20T23:24:40.030Z,23.98
2018-01-20T23:27:08.866Z,22.40
2018-01-20T23:29:37.565Z,22.83
2018-01-20T23:32:06.273Z,19.83
2018-01-20T23:34:35.733Z,23.05
2018-01-20T23:37:04.416Z,29.50
2018-01-20T23:39:33.107Z,21.48
2018-01-20T23:42:01.798Z,24.75
2018-01-20T23:44:30.498Z,23.05
2018-01-20T23:46:59.185Z,24.20
2018-01-20T23:49:27.862Z,23.00
2018-01-20T23:51:56.550Z,24.48
2018-01-20T23:54:25.244Z,21.87
2018-01-20T23:56:53.753Z,23.23
2018-01-20T23:59:22.111Z,21.90
